createdAt,value
2018-07-02T00:00:00.765Z,41.81
2018-07-02T00:02:32.922Z,41.73
2018-07-02T00:05:01.386Z,41.34
2018-07-02T00:07:29.974Z,41.54
2018-07-02T00:09:58.473Z,41.28
2018-07-02T00:12:27.089Z,41.72
2018-07-02T00:14:55.657Z,42.61
2018-07-02T00:17:24.124Z,42.71
2018-07-02T00:19:52.604Z,42.89
2018-07-02T00:22:21.274Z,42.91
2018-07-02T00:24:49.767Z,43.14
2018-07-02T00:27:18.248Z,43.52
2018-07-02T00:29:46.773Z,43.27
2018-07-02T00:32:15.321Z,43.61
2018-07-02T00:34:43.796Z,43.51
2018-07-02T00:37:12.262Z,43.54
2018-07-02T00:39:40.781Z,43.26
2018-07-02T00:42:09.335Z,43.31
2018-07-02T00:44:38.374Z,43.24
2018-07-02T00:47:06.931Z,43.42
2018-07-02T00:49:35.503Z,42.67
2018-07-02T00:52:04.005Z,43.53
2018-07-02T00:54:32.572Z,43.99
2018-07-02T00:57:01.144Z,43.68
2018-07-02T00:59:29.651Z,43.35
2018-07-02T01:01:59.866Z,43.50
2018-07-02T01:04:28.433Z,43.96
2018-07-02T01:06:57.049Z,43.51
2018-07-02T01:09:25.567Z,43.80
2018-07-02T01:11:54.108Z,43.83
2018-07-02T01:14:22.702Z,44.86
2018-07-02T01:16:51.268Z,44.97
2018-07-02T01:19:19.707Z,45.20
2018-07-02T01:21:49.262Z,45.20
2018-07-02T01:24:17.707Z,45.12
2018-07-02T01:26:46.153Z,44.21
2018-07-02T01:29:14.678Z,44.02
2018-07-02T01:31:43.108Z,44.73
2018-07-02T01:34:11.636Z,44.58
2018-07-02T01:36:40.114Z,45.31
2018-07-02T01:39:09.928Z,45.12
2018-07-02T01:41:38.377Z,45.43
2018-07-02T01:44:06.847Z,45.62
2018-07-02T01:46:35.397Z,45.32
2018-07-02T01:49:03.918Z,45.67
2018-07-02T01:51:32.608Z,47.01
2018-07-02T01:54:01.159Z,47.35
2018-07-02T01:56:29.782Z,47.65
2018-07-02T01:58:58.316Z,47.35
2018-07-02T02:01:26.859Z,46.89
2018-07-02T02:03:55.323Z,46.96
2018-07-02T02:06:23.907Z,46.30
2018-07-02T02:08:52.488Z,46.52
2018-07-02T02:11:21.157Z,47.06
2018-07-02T02:13:49.668Z,46.66
2018-07-02T02:16:18.257Z,47.15
2018-07-02T02:18:46.786Z,47.32
2018-07-02T02:21:15.277Z,47.70
2018-07-02T02:23:44.490Z,47.66
2018-07-02T02:26:12.951Z,48.17
2018-07-02T02:28:41.421Z,48.11
2018-07-02T02:31:10.035Z,48.03
2018-07-02T02:33:38.641Z,47.90
2018-07-02T02:36:07.190Z,47.96
2018-07-02T02:38:35.677Z,48.39
2018-07-02T02:41:04.146Z,48.24
2018-07-02T02:43:32.628Z,48.54
2018-07-02T02:46:01.222Z,48.66
2018-07-02T02:48:29.693Z,48.80
2018-07-02T02:50:58.137Z,49.17
2018-07-02T02:53:26.665Z,49.02
2018-07-02T02:55:55.143Z,49.38
2018-07-02T02:58:23.588Z,49.19
2018-07-02T03:00:52.108Z,49.38
2018-07-02T03:03:20.562Z,49.58
2018-07-02T03:05:49.140Z,49.60
2018-07-02T03:08:17.571Z,49.94
2018-07-02T03:10:46.040Z,49.59
2018-07-02T03:13:14.518Z,49.45
2018-07-02T03:15:42.981Z,49.51
2018-07-02T03:18:11.453Z,49.87
2018-07-02T03:20:39.889Z,50.30
2018-07-02T03:23:08.449Z,50.45
2018-07-02T03:25:36.970Z,50.22
2018-07-02T03:28:05.635Z,50.82
2018-07-02T03:30:34.194Z,50.82
2018-07-02T03:33:03.187Z,50.51
2018-07-02T03:35:32.065Z,50.79
2018-07-02T03:38:00.762Z,50.43
2018-07-02T03:40:29.346Z,50.80
2018-07-02T03:42:57.842Z,50.37
2018-07-02T03:45:26.305Z,50.56
2018-07-02T03:47:54.787Z,50.48
2018-07-02T03:50:23.324Z,50.71
2018-07-02T03:52:58.605Z,51.08
2018-07-02T03:55:27.078Z,50.87
2018-07-02T03:57:55.590Z,50.70
2018-07-02T04:00:24.210Z,50.73
2018-07-02T04:02:52.665Z,50.98
2018-07-02T04:05:21.222Z,51.38
2018-07-02T04:07:49.749Z,51.79
2018-07-02T04:10:18.291Z,52.30
2018-07-02T04:12:46.792Z,51.67
2018-07-02T04:15:15.260Z,51.94
2018-07-02T04:17:43.707Z,51.46
2018-07-02T04:20:12.243Z,52.40
2018-07-02T04:22:40.709Z,52.66
2018-07-02T04:25:09.441Z,51.31
2018-07-02T04:27:38.041Z,48.47
2018-07-02T04:30:06.622Z,46.39
2018-07-02T04:32:35.150Z,45.45
2018-07-02T04:35:03.636Z,43.93
2018-07-02T04:37:32.118Z,43.23
2018-07-02T04:40:00.717Z,41.70
2018-07-02T04:42:29.151Z,40.74
2018-07-02T04:44:57.661Z,42.60
2018-07-02T04:47:26.285Z,44.41
2018-07-02T04:49:54.765Z,45.83
2018-07-02T04:52:23.312Z,46.98
2018-07-02T04:54:51.872Z,47.44
2018-07-02T04:57:20.419Z,47.96
2018-07-02T04:59:49.011Z,47.78
2018-07-02T05:02:17.449Z,47.91
2018-07-02T05:04:45.939Z,48.32
2018-07-02T05:07:14.421Z,48.01
2018-07-02T05:09:42.896Z,48.66
2018-07-02T05:12:11.946Z,47.95
2018-07-02T05:14:42.102Z,48.04
2018-07-02T05:17:10.592Z,48.22
2018-07-02T05:19:39.368Z,47.65
2018-07-02T05:22:08.085Z,47.89
2018-07-02T05:24:36.547Z,47.38
2018-07-02T05:27:05.188Z,47.18
2018-07-02T05:29:33.925Z,47.58
2018-07-02T05:32:06.525Z,47.73
2018-07-02T05:34:35.051Z,48.23
2018-07-02T05:37:03.581Z,47.94
2018-07-02T05:39:32.014Z,47.59
2018-07-02T05:42:00.600Z,47.68
2018-07-02T05:44:29.119Z,47.51
2018-07-02T05:46:57.562Z,46.96
2018-07-02T05:49:25.985Z,47.41
2018-07-02T05:51:54.531Z,47.07
2018-07-02T05:54:23.034Z,47.23
2018-07-02T05:56:51.714Z,46.67
2018-07-02T05:59:20.202Z,46.91
2018-07-02T06:01:48.700Z,46.73
2018-07-02T06:04:17.364Z,46.11
2018-07-02T06:06:45.848Z,45.59
2018-07-02T06:09:15.012Z,45.71
2018-07-02T06:11:43.539Z,45.88
2018-07-02T06:14:12.249Z,45.99
2018-07-02T06:16:40.914Z,45.75
2018-07-02T06:19:09.713Z,46.15
2018-07-02T06:21:38.491Z,45.35
2018-07-02T06:24:06.969Z,44.70
2018-07-02T06:26:35.476Z,44.86
2018-07-02T06:29:03.986Z,45.01
2018-07-02T06:31:32.609Z,45.06
2018-07-02T06:34:01.077Z,44.42
2018-07-02T06:36:29.527Z,43.97
2018-07-02T06:38:58.075Z,43.75
2018-07-02T06:41:26.573Z,43.35
2018-07-02T06:43:55.168Z,42.84
2018-07-02T06:46:23.722Z,43.02
2018-07-02T06:48:52.151Z,43.04
2018-07-02T06:51:20.669Z,43.37
2018-07-02T06:53:49.201Z,42.90
2018-07-02T06:56:17.829Z,43.24
2018-07-02T06:58:46.352Z,43.17
2018-07-02T07:01:14.812Z,43.53
2018-07-02T07:03:43.283Z,42.93
2018-07-02T07:06:11.808Z,42.80
2018-07-02T07:08:40.327Z,43.17
2018-07-02T07:11:08.685Z,42.72
2018-07-02T07:13:37.217Z,42.70
2018-07-02T07:16:05.801Z,42.00
2018-07-02T07:18:34.294Z,42.01
2018-07-02T07:21:02.809Z,42.16
2018-07-02T07:23:31.362Z,41.79
2018-07-02T07:25:59.924Z,42.07
2018-07-02T07:28:28.415Z,41.55
2018-07-02T07:30:56.885Z,41.72
2018-07-02T07:33:25.369Z,41.84
2018-07-02T07:35:53.861Z,40.95
2018-07-02T07:38:22.265Z,39.80
2018-07-02T07:40:50.870Z,39.71
2018-07-02T07:43:19.388Z,39.50
2018-07-02T07:45:47.818Z,39.94
2018-07-02T07:48:16.308Z,39.09
2018-07-02T07:50:44.893Z,39.29
2018-07-02T07:53:13.387Z,38.83
2018-07-02T07:55:41.821Z,38.93
2018-07-02T07:58:10.329Z,39.33
2018-07-02T08:00:38.783Z,38.88
2018-07-02T08:03:07.220Z,39.20
2018-07-02T08:05:35.742Z,39.25
2018-07-02T08:08:04.226Z,38.07
2018-07-02T08:10:32.709Z,38.66
2018-07-02T08:13:02.435Z,38.25
2018-07-02T08:15:30.873Z,38.46
2018-07-02T08:17:59.380Z,37.73
2018-07-02T08:20:27.819Z,37.37
2018-07-02T08:22:56.372Z,36.16
2018-07-02T08:25:24.798Z,36.43
2018-07-02T08:27:53.306Z,36.86
2018-07-02T08:30:21.719Z,37.21
2018-07-02T08:32:50.334Z,36.95
2018-07-02T08:35:18.851Z,37.55
2018-07-02T08:37:47.329Z,36.61
2018-07-02T08:40:15.835Z,36.40
2018-07-02T08:42:44.300Z,36.26
2018-07-02T08:45:12.834Z,35.92
2018-07-02T08:47:41.928Z,35.83
2018-07-02T08:50:10.460Z,35.91
2018-07-02T08:52:38.937Z,35.20
2018-07-02T08:55:07.592Z,35.22
2018-07-02T08:57:36.134Z,35.63
2018-07-02T09:00:04.741Z,35.59
2018-07-02T09:02:33.272Z,35.53
2018-07-02T09:05:02.372Z,34.72
2018-07-02T09:07:30.955Z,34.66
2018-07-02T09:09:59.432Z,34.55
2018-07-02T09:12:27.914Z,34.24
2018-07-02T09:14:56.599Z,34.70
2018-07-02T09:17:25.093Z,34.02
2018-07-02T09:19:53.520Z,33.85
2018-07-02T09:22:22.146Z,33.12
2018-07-02T09:24:50.837Z,33.13
2018-07-02T09:27:19.329Z,33.58
2018-07-02T09:29:47.793Z,32.62
2018-07-02T09:32:16.299Z,32.25
2018-07-02T09:34:44.764Z,31.17
2018-07-02T09:37:13.257Z,30.54
2018-07-02T09:39:41.690Z,30.46
2018-07-02T09:42:10.145Z,30.57
2018-07-02T09:44:38.707Z,29.91
2018-07-02T09:47:07.511Z,29.34
2018-07-02T09:49:36.180Z,29.26
2018-07-02T09:52:04.652Z,29.50
2018-07-02T09:54:33.193Z,29.56
2018-07-02T09:57:01.741Z,29.86
2018-07-02T09:59:30.296Z,29.58
2018-07-02T10:01:58.778Z,28.64
2018-07-02T10:04:27.902Z,29.06
2018-07-02T10:06:56.388Z,28.21
2018-07-02T10:09:24.936Z,27.92
2018-07-02T10:11:53.354Z,27.99
2018-07-02T10:14:21.911Z,27.91
2018-07-02T10:16:50.338Z,27.92
2018-07-02T10:19:18.959Z,28.16
2018-07-02T10:21:47.417Z,27.64
2018-07-02T10:24:16.280Z,26.76
2018-07-02T10:26:44.826Z,27.15
2018-07-02T10:29:13.432Z,26.93
2018-07-02T10:31:41.920Z,27.02
2018-07-02T10:34:10.360Z,26.64
2018-07-02T10:36:38.887Z,26.09
2018-07-02T10:39:10.813Z,26.04
2018-07-02T10:41:39.321Z,25.73
2018-07-02T10:44:07.992Z,25.93
2018-07-02T10:46:36.521Z,26.16
2018-07-02T10:49:05.128Z,25.74
2018-07-02T10:51:33.735Z,25.47
2018-07-02T10:54:02.192Z,25.38
2018-07-02T10:56:30.664Z,25.16
2018-07-02T10:58:59.281Z,23.86
2018-07-02T11:01:27.902Z,24.62
2018-07-02T11:03:56.331Z,24.40
2018-07-02T11:06:24.829Z,23.93
2018-07-02T11:08:53.335Z,24.45
2018-07-02T11:11:32.064Z,24.84
2018-07-02T11:14:00.619Z,24.93
2018-07-02T11:16:29.260Z,25.15
2018-07-02T11:18:57.765Z,24.15
2018-07-02T11:21:26.273Z,23.40
2018-07-02T11:23:54.809Z,23.93
2018-07-02T11:26:23.344Z,23.10
2018-07-02T11:28:51.786Z,22.67
2018-07-02T11:31:20.307Z,21.65
2018-07-02T11:33:48.880Z,22.03
2018-07-02T11:36:18.581Z,21.43
2018-07-02T11:38:47.113Z,19.99
2018-07-02T11:41:15.712Z,20.33
2018-07-02T11:43:44.287Z,20.75
2018-07-02T11:46:12.812Z,19.78
2018-07-02T11:48:41.345Z,20.02
2018-07-02T11:51:09.823Z,19.55
2018-07-02T11:53:38.452Z,18.44
2018-07-02T11:56:09.255Z,19.11
2018-07-02T11:58:42.896Z,19.03
2018-07-02T12:01:11.412Z,18.82
2018-07-02T12:03:39.944Z,17.90
2018-07-02T12:06:08.510Z,17.80
2018-07-02T12:08:37.057Z,18.07
2018-07-02T12:11:05.552Z,18.14
2018-07-02T12:13:34.032Z,17.75
2018-07-02T12:16:02.535Z,17.69
2018-07-02T12:18:31.101Z,18.51
2018-07-02T12:20:59.635Z,17.58
2018-07-02T12:23:28.171Z,17.09
2018-07-02T12:25:56.748Z,17.66
2018-07-02T12:28:25.203Z,17.71
2018-07-02T12:30:53.749Z,17.68
2018-07-02T12:33:22.193Z,17.61
2018-07-02T12:35:50.757Z,16.23
2018-07-02T12:38:19.253Z,15.87
2018-07-02T12:40:47.678Z,15.92
2018-07-02T12:43:16.220Z,16.13
2018-07-02T12:45:44.703Z,15.51
2018-07-02T12:48:13.326Z,15.81
2018-07-02T12:50:41.800Z,16.26
2018-07-02T12:53:38.967Z,16.22
2018-07-02T12:56:07.417Z,15.27
2018-07-02T12:58:36.101Z,15.95
2018-07-02T13:01:04.554Z,15.67
2018-07-02T13:03:33.190Z,16.36
2018-07-02T13:06:01.732Z,15.85
2018-07-02T13:08:30.371Z,15.27
2018-07-02T13:10:58.907Z,15.54
2018-07-02T13:13:27.433Z,14.79
2018-07-02T13:15:55.997Z,15.58
2018-07-02T13:18:24.450Z,15.08
2018-07-02T13:20:52.911Z,15.75
2018-07-02T13:23:21.362Z,16.50
2018-07-02T13:25:49.896Z,16.09
2018-07-02T13:28:18.414Z,15.11
2018-07-02T13:30:47.051Z,15.80
2018-07-02T13:33:18.562Z,15.62
2018-07-02T13:35:47.027Z,15.46
2018-07-02T13:38:40.074Z,15.99
2018-07-02T13:41:08.624Z,16.77
2018-07-02T13:43:37.112Z,16.54
2018-07-02T13:46:05.607Z,16.86
2018-07-02T13:48:34.163Z,17.35
2018-07-02T13:51:02.663Z,16.83
2018-07-02T13:53:31.261Z,16.53
2018-07-02T13:55:59.732Z,16.44
2018-07-02T13:58:28.183Z,17.42
2018-07-02T14:00:56.728Z,17.45
2018-07-02T14:03:25.267Z,17.90
2018-07-02T14:05:53.946Z,17.25
2018-07-02T14:08:22.633Z,17.44
2018-07-02T14:10:51.150Z,17.20
2018-07-02T14:13:19.737Z,17.25
2018-07-02T14:15:48.312Z,17.28
2018-07-02T14:18:16.875Z,17.71
2018-07-02T14:20:45.400Z,16.84
2018-07-02T14:23:13.910Z,16.45
2018-07-02T14:25:42.430Z,17.00
2018-07-02T14:28:10.889Z,17.28
2018-07-02T14:30:39.431Z,17.14
2018-07-02T14:33:07.975Z,17.57
2018-07-02T14:35:36.435Z,17.14
2018-07-02T14:38:04.936Z,17.00
2018-07-02T14:40:33.505Z,16.79
2018-07-02T14:43:02.202Z,16.99
2018-07-02T14:45:30.947Z,17.11
2018-07-02T14:47:59.255Z,17.80
2018-07-02T14:50:27.777Z,17.45
2018-07-02T14:52:56.420Z,17.07
2018-07-02T14:55:25.013Z,18.00
2018-07-02T14:57:53.492Z,18.17
2018-07-02T15:00:22.018Z,17.72
2018-07-02T15:02:50.540Z,17.91
2018-07-02T15:05:19.221Z,18.40
2018-07-02T15:07:47.702Z,17.52
2018-07-02T15:10:16.179Z,17.90
2018-07-02T15:12:44.763Z,17.43
2018-07-02T15:15:13.275Z,17.36
2018-07-02T15:17:41.710Z,17.03
2018-07-02T15:20:10.223Z,17.26
2018-07-02T15:22:38.788Z,17.11
2018-07-02T15:25:07.806Z,17.74
2018-07-02T15:27:36.275Z,17.00
2018-07-02T15:30:05.205Z,17.10
2018-07-02T15:32:33.675Z,17.81
2018-07-02T15:35:02.124Z,17.94
2018-07-02T15:37:30.692Z,18.63
2018-07-02T15:39:59.296Z,18.46
2018-07-02T15:42:27.811Z,18.71
2018-07-02T15:44:56.365Z,18.33
2018-07-02T15:47:25.628Z,17.86
2018-07-02T15:49:54.144Z,17.94
2018-07-02T15:52:22.599Z,18.56
2018-07-02T15:54:51.136Z,18.17
2018-07-02T15:57:19.600Z,17.68
2018-07-02T15:59:48.164Z,17.79
2018-07-02T16:02:17.032Z,17.73
2018-07-02T16:04:45.713Z,18.09
2018-07-02T16:07:14.014Z,18.41
2018-07-02T16:09:42.761Z,19.17
2018-07-02T16:12:11.317Z,19.63
2018-07-02T16:14:45.377Z,18.70
2018-07-02T16:17:13.893Z,18.30
2018-07-02T16:19:42.441Z,18.16
2018-07-02T16:22:10.985Z,18.30
2018-07-02T16:24:39.501Z,18.84
2018-07-02T16:27:08.026Z,18.93
2018-07-02T16:29:37.168Z,18.56
2018-07-02T16:32:05.688Z,18.36
2018-07-02T16:34:34.197Z,18.84
2018-07-02T16:37:02.827Z,19.03
2018-07-02T16:39:31.361Z,18.99
2018-07-02T16:41:59.909Z,19.39
2018-07-02T16:44:28.411Z,18.85
2018-07-02T16:46:56.967Z,18.98
2018-07-02T16:49:25.588Z,18.63
2018-07-02T16:51:54.382Z,19.05
2018-07-02T16:54:23.130Z,19.40
2018-07-02T16:56:51.868Z,19.81
2018-07-02T16:59:20.381Z,20.04
2018-07-02T17:01:48.862Z,19.83
2018-07-02T17:04:17.323Z,20.05
2018-07-02T17:06:45.869Z,20.02
2018-07-02T17:09:14.869Z,20.26
2018-07-02T17:11:43.463Z,20.91
2018-07-02T17:14:15.252Z,20.67
2018-07-02T17:16:44.986Z,20.80
2018-07-02T17:19:13.473Z,21.36
2018-07-02T17:21:42.040Z,21.48
2018-07-02T17:24:10.522Z,21.65
2018-07-02T17:26:39.052Z,21.39
2018-07-02T17:29:07.548Z,22.04
2018-07-02T17:31:36.091Z,21.69
2018-07-02T17:34:04.679Z,22.45
2018-07-02T17:36:33.208Z,22.18
2018-07-02T17:39:01.772Z,22.20
2018-07-02T17:41:30.222Z,22.10
2018-07-02T17:43:58.794Z,22.34
2018-07-02T17:46:27.870Z,22.76
2018-07-02T17:48:56.884Z,22.58
2018-07-02T17:51:26.266Z,22.83
2018-07-02T17:53:55.287Z,23.05
2018-07-02T17:56:24.478Z,23.17
2018-07-02T17:58:53.625Z,23.56
2018-07-02T18:01:22.657Z,23.45
2018-07-02T18:03:51.766Z,24.07
2018-07-02T18:06:20.888Z,23.92
2018-07-02T18:08:49.448Z,24.28
2018-07-02T18:11:18.011Z,24.62
2018-07-02T18:13:46.682Z,25.29
2018-07-02T18:16:15.175Z,24.96
2018-07-02T18:18:43.645Z,25.33
2018-07-02T18:21:12.120Z,25.54
2018-07-02T18:23:40.721Z,25.64
2018-07-02T18:26:09.209Z,26.25
2018-07-02T18:28:37.931Z,26.00
2018-07-02T18:31:07.257Z,26.73
2018-07-02T18:33:36.264Z,27.13
2018-07-02T18:36:04.916Z,27.03
2018-07-02T18:38:33.954Z,27.17
2018-07-02T18:41:02.441Z,26.92
2018-07-02T18:43:31.455Z,27.03
2018-07-02T18:46:00.819Z,26.88
2018-07-02T18:48:29.408Z,27.34
2018-07-02T18:50:57.856Z,27.58
2018-07-02T18:53:26.398Z,27.96
2018-07-02T18:56:02.071Z,27.96
2018-07-02T18:58:31.247Z,28.45
2018-07-02T19:00:59.846Z,28.58
2018-07-02T19:03:28.308Z,28.24
2018-07-02T19:05:56.906Z,29.34
2018-07-02T19:08:26.186Z,29.39
2018-07-02T19:10:54.653Z,29.88
2018-07-02T19:13:23.181Z,29.55
2018-07-02T19:15:51.821Z,30.36
2018-07-02T19:18:20.312Z,30.34
2018-07-02T19:20:48.831Z,30.49
2018-07-02T19:23:17.398Z,31.25
2018-07-02T19:25:45.978Z,30.62
2018-07-02T19:28:14.437Z,31.04
2018-07-02T19:30:43.085Z,31.38
2018-07-02T19:33:11.644Z,31.26
2018-07-02T19:35:40.163Z,32.03
2018-07-02T19:38:08.685Z,31.95
2018-07-02T19:40:48.256Z,32.01
2018-07-02T19:43:16.697Z,32.32
2018-07-02T19:45:45.155Z,32.32
2018-07-02T19:48:13.874Z,32.12
2018-07-02T19:50:42.535Z,32.49
2018-07-02T19:53:11.037Z,32.63
2018-07-02T19:55:39.549Z,33.04
2018-07-02T19:58:08.622Z,33.42
2018-07-02T20:00:37.133Z,34.13
2018-07-02T20:03:05.815Z,33.91
2018-07-02T20:05:34.253Z,33.92
2018-07-02T20:08:02.877Z,33.96
2018-07-02T20:10:31.580Z,33.74
2018-07-02T20:13:00.026Z,33.95
2018-07-02T20:15:28.613Z,34.23
2018-07-02T20:17:57.232Z,34.59
2018-07-02T20:20:25.707Z,34.42
2018-07-02T20:22:54.395Z,34.59
2018-07-02T20:29:14.902Z,35.02
2018-07-02T20:31:43.402Z,34.56
2018-07-02T20:34:12.032Z,34.83
2018-07-02T20:36:40.565Z,34.63
2018-07-02T20:39:10.744Z,34.79
2018-07-02T20:41:39.336Z,34.62
2018-07-02T20:44:07.947Z,34.37
2018-07-02T20:46:36.408Z,34.39
2018-07-02T20:49:05.758Z,34.26
2018-07-02T20:51:34.377Z,34.26
2018-07-02T20:54:03.165Z,34.60
2018-07-02T20:56:31.774Z,34.97
2018-07-02T20:59:00.237Z,34.36
2018-07-02T21:04:59.778Z,34.43
2018-07-02T21:07:28.406Z,34.00
2018-07-02T21:09:57.014Z,33.81
2018-07-02T21:12:25.514Z,33.82
2018-07-02T21:14:54.020Z,33.57
2018-07-02T21:17:22.682Z,33.79
2018-07-02T21:19:51.223Z,34.00
2018-07-02T21:22:19.760Z,34.07
2018-07-02T21:24:48.366Z,33.79
2018-07-02T21:27:16.948Z,33.81
2018-07-02T21:29:45.534Z,34.60
2018-07-02T21:32:13.986Z,34.75
2018-07-02T21:34:59.161Z,34.29
2018-07-02T21:37:27.679Z,34.56
2018-07-02T21:39:56.451Z,34.19
2018-07-02T21:42:24.953Z,34.85
2018-07-02T21:44:53.419Z,34.92
2018-07-02T21:47:22.361Z,35.10
2018-07-02T21:49:50.902Z,35.62
2018-07-02T21:52:19.394Z,35.14
2018-07-02T21:54:47.964Z,34.93
2018-07-02T21:57:16.408Z,35.25
2018-07-02T21:59:44.930Z,35.80
2018-07-02T22:02:13.659Z,35.29
2018-07-02T22:04:42.203Z,35.60
2018-07-02T22:07:10.889Z,35.67
2018-07-02T22:09:39.466Z,35.75
2018-07-02T22:12:07.954Z,35.85
2018-07-02T22:14:36.500Z,36.05
2018-07-02T22:17:05.018Z,36.26
2018-07-02T22:19:33.437Z,37.83
2018-07-02T22:22:01.972Z,37.48
2018-07-02T22:24:30.421Z,36.76
2018-07-02T22:27:00.147Z,37.06
2018-07-02T22:29:28.628Z,36.52
2018-07-02T22:35:28.301Z,36.76
2018-07-02T22:37:56.756Z,39.61
2018-07-02T22:40:25.473Z,39.84
2018-07-02T22:42:54.083Z,38.29
2018-07-02T22:45:22.527Z,40.39
2018-07-02T22:47:51.158Z,41.37
2018-07-02T22:50:19.698Z,43.20
2018-07-02T22:52:48.242Z,44.40
2018-07-02T22:55:16.661Z,45.50
2018-07-02T22:57:45.180Z,45.54
2018-07-02T23:00:13.652Z,46.32
2018-07-02T23:02:42.101Z,47.03
2018-07-02T23:05:10.940Z,46.48
2018-07-02T23:07:39.384Z,44.84
2018-07-02T23:10:07.849Z,43.74
2018-07-02T23:12:36.394Z,43.15
2018-07-02T23:15:05.024Z,42.21
2018-07-02T23:17:33.473Z,41.31
2018-07-02T23:20:01.966Z,41.75
2018-07-02T23:22:42.056Z,41.47
2018-07-02T23:25:10.581Z,40.80
2018-07-02T23:27:39.105Z,41.09
2018-07-02T23:30:07.646Z,41.33
2018-07-02T23:32:36.095Z,41.38
2018-07-02T23:35:04.709Z,41.05
2018-07-02T23:37:33.148Z,42.95
2018-07-02T23:40:01.775Z,44.74
2018-07-02T23:42:30.360Z,46.93
2018-07-02T23:44:58.849Z,45.67
2018-07-02T23:47:27.382Z,44.63
2018-07-02T23:49:55.921Z,44.28
2018-07-02T23:52:24.397Z,43.85
2018-07-02T23:54:52.856Z,43.32
2018-07-02T23:57:21.427Z,42.35
2018-07-02T23:59:50.085Z,43.20
